createdAt,value
2022-08-07T00:00:07.527Z,16.35
2022-08-07T00:02:37.593Z,16.17
2022-08-07T00:05:08.436Z,16.24
2022-08-07T00:07:41.182Z,16.17
2022-08-07T00:10:27.050Z,16.19
2022-08-07T00:12:59.909Z,16.09
2022-08-07T00:15:38.423Z,16.19
2022-08-07T00:18:29.114Z,16.13
2022-08-07T00:21:02.027Z,16.20
2022-08-07T00:23:34.552Z,16.09
2022-08-07T00:26:12.961Z,16.13
2022-08-07T00:28:55.745Z,16.11
2022-08-07T00:31:37.434Z,16.16
2022-08-07T00:34:08.500Z,15.87
2022-08-07T00:36:35.851Z,16.06
2022-08-07T00:39:05.431Z,16.05
2022-08-07T00:41:37.308Z,15.97
2022-08-07T00:44:12.093Z,16.04
2022-08-07T00:46:41.822Z,16.00
2022-08-07T00:49:10.517Z,16.00
2022-08-07T00:51:56.697Z,15.91
2022-08-07T00:54:24.488Z,15.79
2022-08-07T00:56:51.717Z,15.85
2022-08-07T00:59:35.192Z,15.90
2022-08-07T01:02:14.029Z,15.88
2022-08-07T01:04:53.872Z,15.62
2022-08-07T01:07:27.560Z,15.62
2022-08-07T01:10:06.803Z,15.60
2022-08-07T01:12:53.902Z,15.45
2022-08-07T01:16:00.976Z,15.58
2022-08-07T01:18:10.279Z,15.67
2022-08-07T01:20:44.910Z,15.77
2022-08-07T01:23:32.682Z,15.82
2022-08-07T01:26:05.179Z,15.74
2022-08-07T01:28:32.963Z,15.74
2022-08-07T01:31:09.535Z,15.71
2022-08-07T01:33:53.638Z,15.34
2022-08-07T01:36:33.414Z,15.26
2022-08-07T01:39:01.211Z,15.40
2022-08-07T01:41:32.593Z,15.35
2022-08-07T01:43:59.450Z,15.28
2022-08-07T01:46:28.492Z,15.38
2022-08-07T01:48:59.847Z,15.36
2022-08-07T01:52:03.131Z,15.14
2022-08-07T01:54:36.597Z,15.41
2022-08-07T01:57:20.513Z,15.49
2022-08-07T02:00:00.083Z,15.55
2022-08-07T02:03:18.599Z,15.54
2022-08-07T02:05:55.265Z,15.41
2022-08-07T02:08:29.437Z,15.34
2022-08-07T02:10:59.692Z,15.33
2022-08-07T02:13:57.334Z,15.40
2022-08-07T02:16:28.752Z,15.31
2022-08-07T02:19:05.694Z,15.36
2022-08-07T02:21:55.951Z,15.43
2022-08-07T02:24:25.381Z,15.48
2022-08-07T02:27:02.407Z,15.40
2022-08-07T02:29:31.649Z,15.36
2022-08-07T02:32:00.301Z,15.39
2022-08-07T02:34:28.669Z,15.14
2022-08-07T02:36:58.077Z,15.24
2022-08-07T02:39:42.537Z,15.06
2022-08-07T02:42:16.238Z,15.14
2022-08-07T02:44:48.398Z,15.18
2022-08-07T02:47:19.650Z,15.19
2022-08-07T02:49:58.518Z,15.19
2022-08-07T02:52:32.670Z,15.15
2022-08-07T02:55:27.690Z,15.18
2022-08-07T02:58:01.080Z,15.19
2022-08-07T03:00:30.264Z,14.88
2022-08-07T03:02:58.359Z,15.05
2022-08-07T03:05:25.240Z,14.93
2022-08-07T03:08:05.122Z,15.01
2022-08-07T03:10:40.608Z,15.10
2022-08-07T03:13:15.472Z,15.06
2022-08-07T03:15:47.609Z,15.06
2022-08-07T03:18:24.487Z,14.92
2022-08-07T03:21:03.435Z,15.00
2022-08-07T03:23:34.165Z,15.02
2022-08-07T03:26:23.644Z,15.02
2022-08-07T03:28:55.603Z,15.08
2022-08-07T03:31:26.120Z,15.15
2022-08-07T03:34:03.221Z,15.09
2022-08-07T03:36:32.590Z,15.17
2022-08-07T03:39:05.272Z,15.21
2022-08-07T03:41:42.240Z,15.14
2022-08-07T03:44:15.358Z,15.27
2022-08-07T03:47:13.187Z,15.34
2022-08-07T03:49:30.540Z,15.33
2022-08-07T03:52:01.441Z,15.43
2022-08-07T03:54:35.809Z,15.48
2022-08-07T03:58:32.542Z,15.49
2022-08-07T04:00:04.759Z,15.45
2022-08-07T04:02:33.215Z,15.61
2022-08-07T04:04:59.954Z,15.65
2022-08-07T04:07:36.112Z,15.80
2022-08-07T04:10:15.630Z,15.87
2022-08-07T04:12:47.382Z,16.01
2022-08-07T04:15:16.597Z,16.06
2022-08-07T04:18:30.964Z,16.10
2022-08-07T04:20:35.300Z,16.15
2022-08-07T04:23:06.135Z,16.22
2022-08-07T04:25:35.871Z,16.28
2022-08-07T04:28:10.353Z,16.32
2022-08-07T04:30:57.326Z,16.43
2022-08-07T04:33:26.476Z,16.48
2022-08-07T04:35:55.575Z,16.36
2022-08-07T04:38:25.753Z,16.50
2022-08-07T04:40:56.588Z,16.60
2022-08-07T04:44:13.147Z,16.69
2022-08-07T04:46:20.090Z,16.70
2022-08-07T04:48:55.562Z,16.73
2022-08-07T04:51:49.313Z,16.82
2022-08-07T04:54:31.466Z,16.63
2022-08-07T04:58:13.256Z,16.81
2022-08-07T05:00:18.796Z,16.95
2022-08-07T05:02:57.092Z,17.45
2022-08-07T05:05:51.837Z,17.70
2022-08-07T05:08:59.286Z,19.98
2022-08-07T05:11:58.667Z,22.05
2022-08-07T05:14:53.824Z,22.16
2022-08-07T05:17:51.899Z,21.48
2022-08-07T05:20:20.041Z,20.66
2022-08-07T05:22:51.330Z,20.75
2022-08-07T05:25:25.884Z,20.43
2022-08-07T05:28:20.317Z,22.81
2022-08-07T05:30:49.812Z,25.14
2022-08-07T05:33:20.681Z,26.51
2022-08-07T05:35:50.707Z,26.78
2022-08-07T05:39:01.418Z,25.66
2022-08-07T05:41:14.388Z,27.08
2022-08-07T05:44:07.613Z,27.84
2022-08-07T05:46:38.546Z,28.49
2022-08-07T05:49:11.764Z,28.96
2022-08-07T05:51:47.127Z,28.62
2022-08-07T05:54:31.055Z,29.23
2022-08-07T05:57:08.147Z,28.63
2022-08-07T05:59:55.796Z,28.17
2022-08-07T06:02:29.124Z,29.56
2022-08-07T06:05:03.514Z,29.83
2022-08-07T06:08:14.682Z,31.11
2022-08-07T06:10:19.343Z,30.50
2022-08-07T06:12:47.373Z,30.84
2022-08-07T06:15:16.028Z,30.99
2022-08-07T06:17:53.508Z,31.10
2022-08-07T06:20:49.372Z,30.19
2022-08-07T06:23:25.132Z,30.51
2022-08-07T06:26:00.461Z,31.99
2022-08-07T06:28:28.572Z,32.32
2022-08-07T06:30:58.689Z,31.44
2022-08-07T06:33:33.054Z,32.07
2022-08-07T06:36:12.777Z,32.44
2022-08-07T06:38:58.415Z,32.40
2022-08-07T06:42:02.922Z,31.95
2022-08-07T06:44:36.537Z,31.07
2022-08-07T06:47:10.083Z,31.71
2022-08-07T06:49:52.501Z,30.67
2022-08-07T06:52:31.241Z,31.49
2022-08-07T06:55:32.524Z,31.68
2022-08-07T06:57:57.375Z,33.34
2022-08-07T07:00:34.457Z,31.72
2022-08-07T07:03:11.052Z,30.78
2022-08-07T07:06:04.669Z,29.14
2022-08-07T07:08:29.856Z,29.37
2022-08-07T07:11:00.868Z,30.31
2022-08-07T07:13:56.231Z,31.74
2022-08-07T07:16:31.032Z,31.05
2022-08-07T07:19:54.755Z,30.11
2022-08-07T07:22:05.242Z,31.06
2022-08-07T07:24:43.143Z,31.61
2022-08-07T07:27:35.811Z,29.81
2022-08-07T07:30:32.331Z,31.28
2022-08-07T07:33:06.412Z,31.58
2022-08-07T07:35:44.036Z,30.84
2022-08-07T07:38:26.019Z,32.66
2022-08-07T07:41:01.880Z,32.32
2022-08-07T07:43:47.716Z,30.66
2022-08-07T07:46:53.203Z,31.05
2022-08-07T07:50:29.496Z,30.99
2022-08-07T07:51:59.802Z,31.03
2022-08-07T07:54:28.330Z,32.06
2022-08-07T07:56:57.684Z,33.81
2022-08-07T07:59:52.320Z,34.29
2022-08-07T08:02:33.702Z,32.84
2022-08-07T08:05:05.323Z,32.14
2022-08-07T08:07:42.550Z,30.53
2022-08-07T08:10:38.146Z,33.17
2022-08-07T08:13:10.648Z,33.20
2022-08-07T08:18:36.530Z,33.01
2022-08-07T08:18:37.174Z,33.26
2022-08-07T08:21:07.599Z,32.75
2022-08-07T08:23:54.660Z,33.26
2022-08-07T08:26:41.313Z,31.73
2022-08-07T08:29:12.772Z,30.80
2022-08-07T08:31:58.789Z,29.33
2022-08-07T08:34:30.369Z,29.70
2022-08-07T08:36:59.005Z,30.17
2022-08-07T08:39:39.425Z,28.66
2022-08-07T08:42:25.898Z,29.12
2022-08-07T08:45:13.426Z,30.22
2022-08-07T08:47:56.173Z,30.41
2022-08-07T08:50:28.624Z,30.21
2022-08-07T08:53:29.465Z,30.56
2022-08-07T08:56:08.456Z,30.28
2022-08-07T08:58:58.009Z,28.72
2022-08-07T09:01:39.859Z,29.27
2022-08-07T09:04:25.862Z,29.74
2022-08-07T09:07:22.979Z,28.74
2022-08-07T09:10:22.058Z,28.78
2022-08-07T09:13:14.747Z,28.21
2022-08-07T09:16:23.468Z,26.93
2022-08-07T09:19:00.501Z,26.17
2022-08-07T09:22:10.188Z,26.45
2022-08-07T09:25:14.598Z,26.51
2022-08-07T09:30:01.223Z,27.48
2022-08-07T09:31:25.256Z,28.13
2022-08-07T09:34:09.818Z,28.01
2022-08-07T09:36:46.888Z,28.77
2022-08-07T09:39:54.448Z,28.62
2022-08-07T09:42:41.909Z,28.52
2022-08-07T09:47:25.851Z,28.65
2022-08-07T09:48:50.229Z,29.26
2022-08-07T09:52:10.623Z,28.89
2022-08-07T09:54:42.722Z,28.96
2022-08-07T09:57:14.313Z,27.77
2022-08-07T10:00:01.540Z,27.07
2022-08-07T10:04:06.452Z,26.48
2022-08-07T10:06:11.907Z,25.93
2022-08-07T10:09:05.323Z,25.69
2022-08-07T10:12:01.517Z,25.13
2022-08-07T10:14:58.722Z,24.58
2022-08-07T10:18:00.418Z,25.14
2022-08-07T10:20:39.830Z,25.66
2022-08-07T10:24:06.552Z,25.76
2022-08-07T10:26:53.737Z,27.07
2022-08-07T10:29:25.064Z,27.32
2022-08-07T10:32:51.625Z,27.09
2022-08-07T10:36:05.585Z,26.77
2022-08-07T10:38:53.134Z,26.61
2022-08-07T10:41:54.687Z,27.15
2022-08-07T10:44:38.289Z,27.75
2022-08-07T10:47:53.122Z,27.80
2022-08-07T10:50:30.847Z,27.96
2022-08-07T10:53:12.760Z,28.36
2022-08-07T10:55:54.010Z,29.17
2022-08-07T10:58:40.456Z,29.58
2022-08-07T11:01:51.418Z,28.63
2022-08-07T11:04:51.468Z,28.42
2022-08-07T11:07:59.663Z,28.09
2022-08-07T11:11:00.159Z,27.29
2022-08-07T11:14:43.826Z,26.22
2022-08-07T11:16:55.743Z,26.40
2022-08-07T11:19:50.307Z,26.04
2022-08-07T11:22:33.226Z,26.03
2022-08-07T11:25:50.256Z,25.73
2022-08-07T11:28:41.488Z,25.54
2022-08-07T11:31:37.486Z,25.71
2022-08-07T11:34:17.184Z,26.06
2022-08-07T11:36:56.708Z,26.63
2022-08-07T11:39:58.934Z,27.24
2022-08-07T11:42:47.897Z,27.24
2022-08-07T11:45:54.596Z,27.81
2022-08-07T11:49:27.470Z,27.27
2022-08-07T11:51:58.240Z,27.34
2022-08-07T11:54:34.507Z,27.12
2022-08-07T11:58:00.442Z,26.99
2022-08-07T12:00:21.202Z,27.33
2022-08-07T12:03:44.480Z,27.52
2022-08-07T12:06:37.229Z,27.53
2022-08-07T12:09:16.018Z,27.35
2022-08-07T12:12:08.859Z,26.87
2022-08-07T12:14:45.123Z,25.88
2022-08-07T12:17:29.158Z,25.38
2022-08-07T12:20:20.935Z,25.91
2022-08-07T12:23:01.344Z,26.74
2022-08-07T12:26:02.746Z,27.00
2022-08-07T12:28:59.039Z,27.89
2022-08-07T12:31:52.985Z,27.99
2022-08-07T12:34:32.240Z,27.77
2022-08-07T12:37:00.951Z,28.43
2022-08-07T12:39:44.316Z,28.16
2022-08-07T12:42:22.885Z,28.01
2022-08-07T12:44:56.908Z,27.87
2022-08-07T12:47:37.487Z,28.05
2022-08-07T12:50:39.962Z,27.89
2022-08-07T12:54:02.665Z,27.68
2022-08-07T12:56:25.031Z,27.57
2022-08-07T12:59:20.571Z,27.63
2022-08-07T13:02:09.831Z,27.46
2022-08-07T13:05:10.321Z,27.37
2022-08-07T13:08:19.218Z,27.16
2022-08-07T13:10:59.430Z,27.40
2022-08-07T13:13:48.198Z,27.55
2022-08-07T13:16:25.108Z,27.28
2022-08-07T13:19:35.227Z,27.61
2022-08-07T13:22:31.334Z,27.35
2022-08-07T13:25:23.980Z,27.39
2022-08-07T13:28:18.735Z,27.35
2022-08-07T13:31:46.254Z,27.85
2022-08-07T13:34:50.708Z,27.95
2022-08-07T13:37:58.934Z,27.99
2022-08-07T13:40:36.430Z,27.65
2022-08-07T13:43:13.292Z,27.93
2022-08-07T13:46:12.858Z,28.21
2022-08-07T13:48:38.673Z,28.01
2022-08-07T13:51:26.768Z,27.94
2022-08-07T13:54:02.067Z,28.38
2022-08-07T13:56:36.084Z,28.52
2022-08-07T13:59:13.149Z,28.37
2022-08-07T14:02:07.999Z,28.46
2022-08-07T14:04:48.924Z,28.12
2022-08-07T14:07:21.445Z,28.55
2022-08-07T14:10:17.658Z,28.50
2022-08-07T14:13:00.621Z,28.73
2022-08-07T14:15:40.581Z,27.70
2022-08-07T14:18:29.226Z,26.63
2022-08-07T14:22:00.950Z,26.05
2022-08-07T14:24:33.419Z,25.30
2022-08-07T14:28:09.908Z,24.58
2022-08-07T14:30:07.845Z,23.48
2022-08-07T14:32:46.168Z,22.43
2022-08-07T14:35:43.178Z,22.08
2022-08-07T14:38:26.875Z,21.05
2022-08-07T14:41:15.115Z,20.89
2022-08-07T14:43:55.877Z,20.93
2022-08-07T14:46:31.991Z,21.05
2022-08-07T14:49:55.763Z,20.89
2022-08-07T14:52:03.312Z,21.01
2022-08-07T14:54:41.949Z,21.18
2022-08-07T14:57:19.724Z,21.13
2022-08-07T15:00:06.471Z,21.14
2022-08-07T15:02:35.231Z,21.45
2022-08-07T15:05:20.382Z,21.42
2022-08-07T15:07:52.322Z,20.62
2022-08-07T15:10:29.566Z,20.85
2022-08-07T15:15:56.560Z,21.06
2022-08-07T15:18:56.214Z,20.97
2022-08-07T15:21:58.874Z,21.14
2022-08-07T15:25:13.685Z,21.27
2022-08-07T15:27:17.314Z,21.24
2022-08-07T15:30:06.420Z,21.33
2022-08-07T15:38:58.696Z,20.62
2022-08-07T15:42:44.141Z,20.42
2022-08-07T15:44:23.800Z,20.37
2022-08-07T15:47:08.822Z,20.53
2022-08-07T15:50:05.554Z,20.64
2022-08-07T15:52:30.457Z,20.33
2022-08-07T15:55:03.874Z,20.35
2022-08-07T15:57:40.211Z,20.44
2022-08-07T16:00:31.825Z,20.39
2022-08-07T16:03:05.612Z,19.98
2022-08-07T16:05:33.694Z,20.12
2022-08-07T16:08:30.846Z,19.92
2022-08-07T16:11:26.859Z,19.85
2022-08-07T16:13:58.816Z,19.70
2022-08-07T16:16:57.050Z,19.78
2022-08-07T16:19:58.859Z,19.93
2022-08-07T16:22:33.715Z,19.79
2022-08-07T16:25:54.740Z,20.01
2022-08-07T16:30:05.618Z,19.44
2022-08-07T16:32:03.789Z,19.38
2022-08-07T16:34:53.143Z,19.70
2022-08-07T16:38:05.946Z,19.71
2022-08-07T16:41:02.400Z,19.73
2022-08-07T16:44:06.218Z,19.64
2022-08-07T16:47:18.622Z,19.58
2022-08-07T16:50:26.672Z,19.39
2022-08-07T16:53:55.407Z,19.40
2022-08-07T16:56:20.652Z,19.45
2022-08-07T16:59:10.816Z,19.47
2022-08-07T17:02:05.214Z,19.17
2022-08-07T17:04:50.686Z,19.33
2022-08-07T17:07:55.796Z,19.23
2022-08-07T17:10:33.157Z,18.79
2022-08-07T17:13:05.650Z,18.94
2022-08-07T17:15:43.752Z,18.87
2022-08-07T17:18:18.627Z,18.74
2022-08-07T17:20:46.646Z,18.77
2022-08-07T17:23:22.661Z,18.81
2022-08-07T17:26:03.765Z,18.59
2022-08-07T17:28:49.716Z,18.73
2022-08-07T17:32:02.920Z,18.45
2022-08-07T17:35:40.725Z,18.63
2022-08-07T17:38:11.349Z,18.57
2022-08-07T17:42:04.682Z,18.02
2022-08-07T17:44:34.000Z,18.08
2022-08-07T17:47:38.525Z,18.15
2022-08-07T17:50:16.733Z,17.86
2022-08-07T17:53:59.654Z,17.79
2022-08-07T17:56:25.957Z,17.90
2022-08-07T17:59:03.908Z,17.74
2022-08-07T18:01:37.139Z,17.47
2022-08-07T18:04:31.192Z,17.66
2022-08-07T18:07:24.305Z,17.68
2022-08-07T18:10:06.144Z,17.70
2022-08-07T18:12:41.384Z,17.59
2022-08-07T18:15:32.754Z,17.35
2022-08-07T18:19:02.628Z,17.64
2022-08-07T18:21:39.203Z,17.39
2022-08-07T18:24:34.193Z,17.30
2022-08-07T18:27:40.140Z,17.36
2022-08-07T18:30:31.898Z,17.47
2022-08-07T18:33:12.025Z,17.46
2022-08-07T18:36:05.829Z,17.48
2022-08-07T18:40:05.499Z,17.53
2022-08-07T18:42:04.117Z,17.54
2022-08-07T18:45:42.764Z,17.59
2022-08-07T18:50:32.777Z,17.22
2022-08-07T18:52:53.866Z,16.84
2022-08-07T18:55:55.981Z,17.04
2022-08-07T18:58:34.162Z,17.06
2022-08-07T19:02:32.059Z,17.06
2022-08-07T19:05:15.742Z,17.01
2022-08-07T19:08:17.502Z,16.99
2022-08-07T19:10:53.561Z,16.97
2022-08-07T19:13:37.169Z,17.01
2022-08-07T19:17:06.041Z,16.99
2022-08-07T19:19:14.958Z,17.02
2022-08-07T19:22:04.339Z,17.01
2022-08-07T19:24:43.564Z,17.06
2022-08-07T19:28:30.034Z,17.05
2022-08-07T19:31:01.320Z,17.15
2022-08-07T19:32:54.909Z,17.14
2022-08-07T19:35:40.618Z,17.06
2022-08-07T19:38:17.205Z,16.79
2022-08-07T19:40:50.384Z,16.94
2022-08-07T19:43:43.535Z,16.75
2022-08-07T19:46:26.678Z,16.70
2022-08-07T19:49:07.442Z,16.92
2022-08-07T19:51:52.293Z,17.03
2022-08-07T19:54:34.784Z,16.61
2022-08-07T19:58:04.780Z,16.70
2022-08-07T20:00:08.613Z,16.56
2022-08-07T20:02:52.113Z,16.71
2022-08-07T20:05:28.016Z,16.56
2022-08-07T20:08:02.474Z,16.37
2022-08-07T20:10:51.972Z,16.37
2022-08-07T20:13:46.106Z,16.45
2022-08-07T20:16:36.162Z,16.14
2022-08-07T20:19:10.976Z,16.31
2022-08-07T20:21:48.314Z,16.37
2022-08-07T20:24:23.333Z,16.18
2022-08-07T20:26:54.780Z,16.39
2022-08-07T20:29:49.323Z,16.37
2022-08-07T20:32:23.020Z,16.37
2022-08-07T20:34:57.013Z,16.44
2022-08-07T20:37:29.346Z,16.39
2022-08-07T20:40:02.179Z,16.56
2022-08-07T20:42:36.595Z,16.45
2022-08-07T20:45:33.037Z,16.46
2022-08-07T20:47:58.276Z,16.45
2022-08-07T20:50:29.088Z,16.40
2022-08-07T20:52:57.898Z,16.20
2022-08-07T20:55:25.648Z,16.22
2022-08-07T20:58:03.605Z,15.95
2022-08-07T21:00:45.136Z,16.21
2022-08-07T21:03:16.768Z,16.10
2022-08-07T21:06:03.704Z,16.13
2022-08-07T21:09:13.840Z,16.20
2022-08-07T21:11:51.105Z,16.11
2022-08-07T21:14:33.341Z,16.12
2022-08-07T21:18:02.189Z,16.15
2022-08-07T21:20:04.813Z,16.06
2022-08-07T21:22:51.276Z,16.21
2022-08-07T21:25:29.132Z,16.13
2022-08-07T21:28:07.924Z,16.03
2022-08-07T21:30:46.898Z,16.07
2022-08-07T21:33:21.465Z,15.99
2022-08-07T21:36:12.081Z,16.10
2022-08-07T21:39:45.574Z,16.13
2022-08-07T21:42:37.780Z,15.97
2022-08-07T21:46:05.151Z,15.95
2022-08-07T21:48:26.819Z,16.01
2022-08-07T21:51:19.851Z,15.96
2022-08-07T21:53:54.167Z,15.83
2022-08-07T21:56:47.169Z,15.88
2022-08-07T21:59:15.202Z,15.90
2022-08-07T22:02:10.724Z,15.78
2022-08-07T22:04:53.808Z,15.79
2022-08-07T22:07:31.641Z,15.75
2022-08-07T22:10:24.543Z,15.79
2022-08-07T22:12:55.926Z,15.80
2022-08-07T22:16:38.583Z,15.76
2022-08-07T22:18:42.124Z,15.51
2022-08-07T22:21:19.189Z,15.64
2022-08-07T22:23:58.080Z,15.52
2022-08-07T22:26:51.334Z,15.30
2022-08-07T22:29:38.060Z,15.55
2022-08-07T22:32:42.182Z,15.60
2022-08-07T22:35:11.482Z,15.64
2022-08-07T22:38:03.155Z,15.64
2022-08-07T22:40:50.106Z,15.61
2022-08-07T22:43:56.019Z,15.60
2022-08-07T22:47:04.377Z,15.54
2022-08-07T22:50:13.615Z,15.65
2022-08-07T22:52:53.922Z,15.59
2022-08-07T22:55:46.583Z,15.52
2022-08-07T22:58:31.535Z,15.45
2022-08-07T23:01:18.464Z,15.27
2022-08-07T23:04:04.651Z,15.30
2022-08-07T23:06:41.783Z,15.25
2022-08-07T23:10:04.035Z,15.26
2022-08-07T23:12:32.895Z,15.26
2022-08-07T23:15:11.292Z,15.25
2022-08-07T23:18:32.108Z,15.02
2022-08-07T23:21:37.995Z,15.24
2022-08-07T23:24:27.990Z,15.16
2022-08-07T23:27:33.213Z,15.17
2022-08-07T23:30:38.666Z,15.08
2022-08-07T23:34:21.846Z,15.16
2022-08-07T23:36:17.226Z,15.13
2022-08-07T23:39:08.596Z,15.13
2022-08-07T23:41:47.492Z,15.14
2022-08-07T23:45:02.359Z,14.95
2022-08-07T23:48:02.983Z,14.93
2022-08-07T23:50:36.714Z,15.00
2022-08-07T23:53:16.718Z,15.06
2022-08-07T23:55:52.824Z,15.06
2022-08-07T23:58:37.827Z,14.88
